Date,TemperatureHighF,TemperatureAvgF,TemperatureLowF,DewpointHighF,DewpointAvgF,DewpointLowF,HumidityHigh,HumidityAvg,HumidityLow,PressureMaxIn,PressureMinIn,WindSpeedMaxMPH,WindSpeedAvgMPH,GustSpeedMaxMPH,PrecipitationSumIn
2012-1-1,58.1,49.4,45.1,36.4,32.1,28.4,67,52,35,30.21,29.77,18,7,18,0.00
2012-1-2,58.1,49.0,42.4,34.3,31.5,28.0,69,52,35,30.24,30.15,12,5,12,0.00
2012-1-3,61.7,50.6,43.7,46.9,37.0,26.6,88,63,29,30.24,30.12,7,4,7,0.00
2012-1-4,63.9,52.9,46.9,48.0,45.1,39.6,95,77,44,30.21,29.98,8,3,8,0.00
2012-1-5,64.4,53.0,46.6,50.7,46.7,40.1,100,82,45,30.00,29.65,11,3,11,0.00
2012-1-6,61.7,55.9,50.7,56.8,49.5,36.1,100,80,54,29.65,29.03,44,16,44,0.00
2012-1-7,57.0,50.5,45.3,40.5,35.0,31.4,72,56,44,29.68,29.18,20,8,20,0.00
2012-1-8,53.6,46.6,43.5,41.9,31.3,21.7,85,56,40,29.80,29.65,13,6,13,0.00
2012-1-9,58.3,47.8,40.3,33.8,25.0,19.5,59,41,27,29.95,29.77,14,4,14,0.00
2012-1-10,50.2,43.3,40.3,38.9,32.7,27.5,87,66,51,30.06,29.89,21,9,21,0.00
2012-1-11,42.8,40.1,37.9,42.1,38.1,33.0,100,93,68,30.15,30.00,18,7,18,0.46
2012-1-12,42.6,42.0,41.5,37.7,36.7,35.6,85,81,76,30.18,30.12,13,8,13,0.00
2012-1-15,41.2,40.4,39.6,23.7,22.5,20.7,52,49,44,29.95,29.86,7,4,7,0.08
2012-1-16,46.8,40.1,35.1,23.9,17.9,13.9,56,41,29,30.12,29.89,17,7,17,0.00
2012-1-17,50.0,40.6,34.5,21.4,17.8,13.6,50,40,29,30.21,30.06,14,6,14,0.00
2012-1-18,50.2,41.6,35.1,23.9,20.8,14.9,60,44,29,30.36,30.18,15,5,15,0.00
2012-1-19,54.0,44.4,36.1,31.8,22.9,17.9,61,44,28,30.39,30.24,10,4,10,0.00
2012-1-20,61.2,52.1,43.0,43.9,37.4,29.9,73,58,39,30.24,29.89,26,7,26,0.00
2012-1-21,63.7,53.3,44.1,45.3,37.8,26.4,80,57,37,29.92,29.71,22,6,22,0.00
2012-1-22,60.3,49.4,39.4,37.9,25.7,13.4,60,41,27,29.98,29.83,20,5,20,0.00
2012-1-23,66.0,53.9,47.1,44.7,39.9,33.6,80,60,36,29.98,29.89,8,3,8,0.00
2012-1-24,60.1,54.1,51.4,54.5,50.2,42.1,100,87,59,29.95,29.65,8,2,8,0.26
2012-1-25,63.3,52.4,46.0,55.9,45.6,35.5,100,79,50,29.65,29.47,19,5,19,0.08
2012-1-26,56.7,45.1,40.6,40.2,33.3,27.4,88,65,36,29.86,29.53,16,4,16,0.04
2012-1-27,51.8,43.9,38.1,36.1,30.1,26.8,77,59,39,30.21,29.86,18,6,18,0.00
2012-1-28,47.3,43.8,42.4,38.2,33.6,28.0,85,68,54,30.27,30.15,15,6,15,0.00
2012-1-29,50.0,44.5,42.3,31.8,27.8,24.6,65,52,41,30.15,30.00,20,9,20,0.00
2012-1-30,44.6,39.2,34.2,25.9,22.9,20.4,67,52,41,30.15,30.00,30,14,30,0.00
2012-1-31,39.7,34.5,32.0,28.1,22.7,18.1,76,62,51,30.18,30.09,28,13,28,0.00
2012-2-1,43.7,37.6,33.4,32.1,25.1,21.7,82,61,45,30.24,30.12,21,9,21,0.00
2012-2-2,54.9,45.3,39.2,50.0,39.8,25.6,100,82,58,30.15,29.97,14,4,14,0.00
2012-2-3,62.6,53.5,47.5,53.9,48.7,43.5,96,84,62,30.21,29.91,16,4,16,0.00
2012-2-4,65.1,57.3,51.3,54.6,49.2,43.7,90,76,51,30.21,30.12,28,9,28,0.04
2012-2-5,64.2,58.5,55.6,57.7,53.7,48.9,100,85,59,30.18,30.06,25,11,25,0.00
2012-2-6,58.6,54.7,49.5,56.2,50.7,41.1,100,87,52,30.06,29.32,38,11,38,1.13
2012-2-7,55.4,50.9,44.2,52.6,47.0,41.6,100,87,62,29.74,29.32,33,11,33,0.33
2012-2-8,46.6,41.8,38.7,42.7,32.2,28.4,95,69,53,30.12,29.71,30,11,30,0.00
2012-2-9,45.9,40.0,37.4,31.3,28.7,26.1,78,64,49,30.15,30.06,23,9,23,0.00
2012-2-10,46.9,43.1,39.2,33.1,30.8,28.6,71,62,51,30.30,30.12,24,10,24,0.00
2012-2-11,58.5,49.9,45.1,50.1,40.8,31.7,100,72,55,30.27,30.18,24,6,24,0.29
2012-2-12,63.0,52.0,48.2,52.2,48.0,42.3,100,87,53,30.21,30.00,17,4,17,0.84
2012-2-13,64.0,53.5,48.4,56.6,45.0,36.1,100,75,46,30.03,29.88,15,4,15,0.00
2012-2-14,58.8,49.4,44.4,46.0,39.7,34.8,89,70,48,29.97,29.80,17,4,17,0.04
2012-2-15,58.6,45.3,43.3,41.9,35.6,27.8,86,70,33,29.91,29.83,24,6,24,0.00
2012-2-16,55.4,46.7,40.8,37.9,33.2,23.6,73,60,46,29.85,29.65,18,6,18,0.00
2012-2-17,42.4,40.5,37.8,24.8,18.8,16.9,50,41,38,30.12,29.83,24,8,24,0.00
2012-2-18,59.2,47.4,35.6,28.8,22.3,17.5,51,38,28,30.21,30.12,10,4,10,0.00
2012-2-19,61.0,50.6,41.4,39.9,31.0,22.8,65,48,29,30.39,30.18,17,4,17,0.00
2012-2-20,59.2,51.4,47.1,47.6,43.8,37.8,88,76,57,30.44,30.36,18,4,18,0.00
2012-2-21,52.3,49.8,48.0,44.8,42.3,38.4,86,76,59,30.44,30.33,19,7,19,0.00
2012-2-22,52.9,51.3,48.7,47.7,43.1,39.3,90,74,61,30.33,30.24,23,8,23,0.21
2012-2-23,60.1,52.7,48.7,45.5,39.8,36.4,88,62,47,30.30,30.12,24,7,24,0.04
2012-2-24,68.0,53.9,42.8,40.7,35.2,30.5,69,51,33,30.15,30.03,12,4,12,0.00
2012-2-25,68.9,57.5,48.4,45.3,37.4,33.8,60,48,32,30.12,29.94,9,4,9,0.00
2012-2-26,69.6,57.1,50.0,53.9,44.3,36.0,88,63,43,30.00,29.68,14,4,14,0.00
2012-2-27,54.9,49.1,43.7,51.7,42.7,31.1,95,79,62,29.74,29.59,36,12,36,0.05
2012-2-28,48.0,40.6,34.9,37.2,26.6,16.1,100,60,32,30.06,29.71,38,13,38,0.08
2012-2-29,54.7,43.0,34.9,38.3,24.5,10.1,88,49,31,30.00,29.65,23,7,23,0.12
2012-3-1,50.2,42.3,39.2,36.9,28.6,22.2,84,59,39,30.27,29.94,23,8,23,0.00
2012-3-2,60.4,48.2,37.0,45.0,31.8,27.0,80,55,32,30.30,30.12,10,4,10,0.00
2012-3-3,70.0,57.6,45.9,46.7,40.6,25.2,87,57,27,30.15,30.00,14,4,14,0.00
2012-3-4,65.5,55.7,50.4,40.0,33.4,23.6,67,44,27,30.21,30.09,24,8,24,0.00
2012-3-5,59.5,52.8,49.3,53.8,47.5,40.4,100,82,68,30.15,29.88,18,4,18,0.34
2012-3-6,61.9,53.3,48.6,48.3,41.8,34.0,95,68,38,30.21,29.94,15,6,15,0.00
2012-3-7,66.2,55.7,50.0,43.1,39.8,37.0,66,56,37,30.30,30.18,16,5,16,0.00
2012-3-8,66.6,57.3,51.6,52.2,45.2,40.7,86,65,46,30.30,30.15,20,5,20,0.00
2012-3-9,69.8,58.1,51.6,54.7,49.0,44.5,89,74,45,30.44,30.24,25,8,25,0.00
2012-3-10,57.6,51.7,48.2,45.7,33.8,22.7,80,53,30,30.44,30.15,26,12,26,0.00
2012-3-11,50.2,47.4,44.1,42.3,34.4,29.6,85,61,48,30.21,29.74,21,8,21,0.03
2012-3-12,50.7,45.6,43.5,39.2,34.7,31.1,77,66,48,29.88,29.65,25,8,25,0.00
2012-3-13,49.8,45.6,44.6,38.2,31.6,27.1,74,58,48,30.09,29.83,31,13,31,0.00
2012-3-14,46.8,46.1,45.3,32.7,32.1,30.8,59,58,55,30.09,30.06,12,6,12,0.00
2012-3-15,54.9,52.4,49.8,32.2,30.4,28.9,48,43,38,30.27,30.21,10,4,10,0.00
2012-3-16,60.8,52.2,47.1,39.4,33.8,27.5,69,50,35,30.50,30.27,17,6,17,0.00
2012-3-17,66.2,55.3,45.9,49.3,43.0,35.8,89,65,43,30.50,30.39,15,4,15,0.00
2012-3-18,70.5,58.7,50.2,54.0,47.0,39.5,91,68,37,30.48,30.36,20,5,20,0.00
2012-3-19,71.8,59.0,50.9,54.7,47.8,43.0,96,69,42,30.42,30.36,15,4,15,0.00
2012-3-20,72.3,60.3,50.4,54.8,49.5,44.2,94,70,40,30.48,30.36,9,3,9,0.00
2012-3-21,77.4,64.5,53.1,56.6,43.7,35.8,94,52,25,30.48,30.36,10,3,10,0.00
2012-3-22,76.1,65.1,55.8,41.5,35.2,25.6,48,34,25,30.42,30.36,20,5,20,0.00
2012-3-23,74.7,64.3,55.8,37.5,32.5,26.6,39,31,26,30.42,30.24,14,6,14,0.00
2012-3-24,75.9,63.7,53.6,49.4,35.3,26.0,70,37,25,30.30,30.12,13,4,13,0.00
2012-3-25,76.1,62.6,55.0,54.1,38.7,32.7,77,43,26,30.18,30.06,12,4,12,0.00
2012-3-26,78.1,64.1,53.4,42.9,36.6,31.6,53,37,25,30.12,30.00,12,3,12,0.00
2012-3-27,69.3,60.3,53.2,43.4,34.3,27.7,60,38,27,30.24,30.06,20,8,20,0.00
2012-3-28,69.3,58.5,51.6,45.3,37.7,29.0,75,49,27,30.18,30.06,18,7,18,0.00
2012-3-29,71.4,59.0,50.0,47.8,38.0,26.1,69,47,33,30.18,29.97,24,6,24,0.00
2012-3-30,75.6,63.5,56.1,49.0,42.7,35.0,76,49,25,29.97,29.77,18,8,18,0.00
2012-3-31,72.0,62.6,54.0,54.7,41.5,35.3,88,48,30,29.94,29.83,19,6,19,0.00
2012-4-1,73.6,63.0,55.6,56.1,46.7,37.9,96,59,33,29.85,29.77,20,6,20,0.00
2012-4-2,68.9,59.7,52.2,47.4,41.0,35.8,76,51,35,30.12,29.83,20,7,20,0.00
2012-4-3,70.0,60.7,52.0,53.7,45.8,40.2,86,59,39,30.15,30.06,17,6,17,0.00
2012-4-4,76.8,65.6,58.5,55.0,48.4,41.0,85,56,32,30.15,30.03,24,6,24,0.00
2012-4-5,74.8,64.7,59.7,58.3,48.5,45.0,77,56,40,30.06,29.88,13,4,13,0.00
2012-4-6,79.3,66.4,56.7,56.6,49.2,45.6,83,56,34,29.91,29.83,13,4,13,0.00
2012-4-7,82.8,68.8,58.8,53.1,46.5,40.3,69,47,24,29.88,29.68,16,4,16,0.00
2012-4-8,78.6,66.2,56.7,55.8,45.0,33.9,83,48,25,29.71,29.53,28,8,28,0.00
2012-4-9,71.8,57.0,48.2,51.1,43.1,36.2,100,63,29,29.65,29.50,18,7,18,0.34
2012-4-10,56.7,51.2,48.4,44.2,38.6,34.0,83,63,46,30.00,29.62,20,9,20,0.00
2012-4-11,68.2,56.3,45.1,49.0,38.0,31.8,74,52,30,30.00,29.83,16,5,16,0.00
2012-4-12,60.3,57.1,54.5,47.4,42.9,39.4,75,59,46,29.88,29.83,7,3,7,0.00
2012-4-13,72.5,62.6,54.5,62.1,49.8,37.5,100,65,42,29.83,29.65,25,7,25,0.00
2012-4-14,61.7,61.4,61.0,61.5,61.2,60.7,100,99,97,29.68,29.62,16,9,16,0.00
2012-4-16,63.7,63.5,63.3,42.2,41.4,38.9,46,44,42,29.88,29.88,18,9,18,0.00
2012-4-17,71.2,65.1,62.1,51.3,47.3,43.1,64,53,37,29.68,29.56,15,7,15,0.00
2012-4-18,62.8,58.6,53.1,59.0,48.5,40.5,100,72,45,29.65,29.12,37,15,37,0.92
2012-4-19,74.7,64.5,55.6,53.4,44.2,39.3,78,50,31,29.85,29.65,20,6,20,0.00
2012-4-20,71.2,64.1,56.8,56.7,48.6,42.0,80,58,40,29.88,29.74,33,9,33,0.00
2012-4-21,74.1,64.4,55.6,51.0,43.0,32.7,78,49,26,30.03,29.77,22,7,22,0.00
2012-4-22,75.7,64.3,54.5,47.3,40.5,35.0,62,43,25,30.09,30.00,18,6,18,0.00
2012-4-23,78.8,65.6,55.9,48.9,42.6,36.5,68,45,25,30.09,30.00,24,5,24,0.00
2012-4-24,78.3,65.9,58.6,51.9,42.8,31.7,68,44,27,30.06,29.97,21,5,21,0.00
2012-4-25,77.4,69.1,58.5,51.8,44.2,31.0,56,42,28,30.03,29.94,30,7,30,0.00
2012-4-26,82.0,69.3,58.6,51.2,46.2,38.3,66,46,24,30.12,29.97,18,4,18,0.00
2012-4-27,84.0,70.2,58.8,45.8,39.7,33.9,46,34,24,30.12,30.00,23,7,23,0.00
2012-4-28,77.4,68.2,59.7,51.0,44.0,38.3,64,43,30,30.09,30.06,20,6,20,0.00
2012-4-29,84.4,68.9,58.3,52.0,46.7,37.3,67,48,28,30.09,30.00,15,4,15,0.00
2012-4-30,88.3,77.8,69.8,45.8,39.5,34.9,32,26,23,30.03,29.94,21,8,21,0.00
2012-5-1,92.3,77.8,65.8,47.7,39.9,33.5,33,26,22,30.00,29.91,15,5,15,0.00
2012-5-2,91.4,77.6,66.6,49.8,41.4,34.8,46,28,22,29.97,29.83,16,5,16,0.00
2012-5-3,90.7,75.9,66.6,49.5,41.5,34.0,40,30,22,29.85,29.74,18,5,18,0.00
2012-5-4,85.8,74.4,65.1,54.5,46.6,38.6,55,38,26,29.83,29.71,19,4,19,0.00
2012-5-5,84.6,73.4,64.2,53.6,49.0,42.3,63,44,26,29.91,29.77,15,4,15,0.00
2012-5-6,86.4,74.3,63.0,54.8,44.5,39.4,49,35,23,30.03,29.88,14,4,14,0.00
2012-5-7,90.0,76.2,65.1,49.6,44.6,40.6,51,33,22,30.03,29.97,21,4,21,0.00
2012-5-8,91.4,78.2,68.9,48.9,43.7,40.0,44,30,22,30.00,29.88,16,4,16,0.00
2012-5-9,87.8,75.6,67.3,53.1,45.7,39.2,51,35,26,30.06,29.94,20,6,20,0.00
2012-5-10,80.8,72.5,66.2,52.3,47.8,44.2,53,42,31,30.12,30.03,25,8,25,0.00
2012-5-11,78.8,72.7,68.4,54.4,51.2,48.4,57,47,38,30.12,30.06,23,9,23,0.00
2012-5-12,69.4,68.8,68.0,51.6,50.8,50.0,54,53,50,30.09,30.03,10,4,10,0.00
2012-5-14,71.2,70.6,70.2,57.8,55.9,54.1,64,60,55,29.77,29.74,14,8,14,0.00
2012-5-15,78.3,70.3,64.0,62.8,47.0,37.0,86,46,28,29.85,29.71,24,10,24,0.00
2012-5-16,78.3,68.1,60.6,51.8,45.1,40.0,64,45,28,29.88,29.80,23,10,23,0.00
2012-5-17,77.5,65.9,57.4,54.5,46.3,40.5,84,51,32,29.85,29.65,29,7,29,0.08
2012-5-18,61.7,57.4,54.3,57.6,51.0,41.3,100,80,57,29.91,29.68,18,6,18,0.34
2012-5-19,80.2,65.7,57.2,56.9,52.6,43.4,96,66,30,30.03,29.88,15,6,15,0.00
2012-5-20,82.2,69.7,59.7,61.9,52.4,44.7,91,57,32,30.03,29.94,20,6,20,0.00
2012-5-21,79.7,69.5,62.4,58.4,52.8,43.6,76,57,30,30.00,29.88,18,4,18,0.00
2012-5-22,83.3,72.0,63.1,57.7,50.0,38.6,79,48,25,29.91,29.80,23,6,23,0.00
2012-5-23,79.2,70.3,63.3,54.4,46.2,39.8,67,43,30,29.94,29.88,22,9,22,0.00
2012-5-24,79.3,68.5,62.6,56.8,50.6,42.7,75,55,31,29.91,29.80,22,5,22,0.00
2012-5-25,81.5,69.6,61.0,56.2,51.6,44.9,76,55,31,29.97,29.83,15,5,15,0.00
2012-5-26,80.8,68.6,63.7,60.8,52.0,44.1,77,57,37,30.03,29.97,8,3,8,0.00
2012-5-28,77.7,70.7,66.9,56.4,50.6,42.7,69,50,32,29.91,29.88,17,7,17,0.00
2012-5-29,81.5,69.6,63.1,59.1,50.2,40.9,76,52,30,29.94,29.88,16,6,16,0.00
2012-5-30,82.8,69.5,61.7,58.4,50.7,41.1,83,54,30,30.06,29.91,15,5,15,0.08
2012-5-31,83.5,71.0,59.7,54.8,50.7,45.8,74,51,30,30.09,30.00,17,5,17,0.00
2012-6-1,84.4,73.4,63.5,56.1,49.2,39.4,59,44,31,30.12,30.00,21,6,21,0.00
2012-6-2,86.5,75.5,64.9,56.7,48.0,36.3,58,39,26,30.15,30.03,21,5,21,0.00
2012-6-3,88.9,77.3,66.6,57.2,50.0,43.3,69,40,26,30.12,30.00,14,5,14,0.00
2012-6-4,91.4,79.2,67.6,55.9,47.9,40.0,54,34,22,30.09,29.88,16,4,16,0.00
2012-6-5,90.9,79.0,69.1,54.7,47.0,40.9,53,34,22,29.91,29.77,21,6,21,0.00
2012-6-6,87.3,76.0,67.3,55.3,49.4,44.2,65,41,26,29.94,29.80,26,7,26,0.00
2012-6-7,90.7,78.4,68.0,60.2,52.6,44.6,67,43,22,29.97,29.88,17,4,17,0.00
2012-6-8,92.5,80.4,68.7,57.3,51.2,45.6,61,39,22,30.03,29.94,15,5,15,0.00
2012-6-9,97.0,88.6,73.2,58.7,51.4,46.9,52,29,21,30.03,29.94,13,5,13,0.00
2012-6-10,97.3,84.5,74.1,60.8,50.6,40.5,63,33,21,29.97,29.83,18,7,18,0.00
2012-6-11,92.8,81.4,69.6,64.4,54.0,43.7,76,42,23,29.88,29.77,23,5,23,0.00
2012-6-12,96.3,84.3,72.0,62.6,52.2,47.6,60,35,21,29.85,29.77,18,4,18,0.00
2012-6-13,101.7,88.3,74.5,57.7,52.1,44.8,49,30,20,29.88,29.83,13,4,13,0.00
2012-6-14,101.5,89.7,78.4,61.1,51.7,44.8,51,29,20,29.97,29.83,13,4,13,0.00
2012-6-15,97.5,85.8,75.2,60.7,52.4,46.1,59,33,21,30.00,29.94,18,6,18,0.00
2012-6-16,91.2,84.2,78.3,51.8,46.9,42.5,38,28,22,30.06,29.97,31,16,31,0.00
2012-6-17,92.3,86.2,79.2,48.0,44.3,40.1,29,23,22,30.03,29.97,26,14,26,0.00
2012-6-18,95.9,84.7,73.6,49.4,43.4,36.6,28,24,21,30.03,29.88,23,9,23,0.00
2012-6-19,96.8,85.5,73.2,50.4,46.2,41.7,33,26,21,29.97,29.85,23,7,23,0.00
2012-6-20,93.2,85.2,77.4,52.8,48.4,43.6,41,29,22,29.88,29.80,28,14,28,0.00
2012-6-21,97.5,85.9,78.6,51.0,45.3,39.8,30,25,21,29.83,29.77,29,12,29,0.00
2012-6-22,87.8,87.1,86.5,45.4,44.8,44.3,23,23,23,29.88,29.85,20,11,20,0.00
2012-6-23,99.5,89.8,79.7,51.8,47.7,44.0,30,24,20,30.00,29.88,28,9,28,0.00
2012-6-24,99.0,90.6,81.0,52.1,48.8,44.1,32,24,20,29.97,29.88,20,8,20,0.00
2012-6-25,101.7,88.2,79.0,61.2,53.0,48.7,53,31,20,29.91,29.83,21,7,21,0.00
2012-6-26,98.4,86.7,77.4,60.7,54.5,47.3,54,35,21,29.94,29.85,20,5,20,0.00
2012-6-27,97.7,84.9,77.7,58.2,52.8,44.7,43,34,26,30.00,29.88,20,6,20,0.00
2012-6-28,85.8,78.4,73.9,53.4,46.9,40.0,47,34,24,30.00,29.94,18,8,18,0.00
2012-6-29,92.1,83.1,74.1,48.5,44.1,37.6,37,26,22,30.00,29.91,23,9,23,0.00
2012-6-30,92.8,84.4,76.8,48.5,45.0,39.4,31,26,22,30.00,29.91,24,10,24,0.00
2012-7-1,91.6,83.4,77.0,46.9,44.8,41.5,33,26,22,30.00,29.91,30,11,30,0.00
2012-7-2,87.3,80.7,74.5,47.3,43.5,39.2,34,27,23,30.03,29.91,30,15,30,0.00
2012-7-3,92.8,81.9,73.4,50.0,44.2,39.1,36,27,22,30.03,29.94,24,11,24,0.00
2012-7-4,96.3,84.4,73.8,55.4,45.2,38.8,47,26,21,30.00,29.85,17,7,17,0.00
2012-7-5,101.7,86.5,73.2,64.3,54.2,40.9,52,34,21,29.91,29.83,16,4,16,0.00
2012-7-13,84.0,84.0,84.0,69.1,69.1,69.1,61,61,61,29.88,29.88,1,1,0,0.00
2012-7-14,90.9,84.6,84.0,69.1,67.5,54.6,61,57,33,29.94,29.88,15,2,15,0.00
2012-7-15,107.1,94.9,83.5,68.1,60.4,51.8,47,32,29,29.94,29.85,17,6,17,0.00
2012-7-16,105.3,93.6,83.8,69.2,61.7,54.0,45,35,29,29.88,29.77,13,4,13,0.00
2012-7-17,98.2,89.8,82.8,65.9,61.4,58.5,49,39,33,29.94,29.80,24,10,24,0.00
2012-7-18,93.2,84.8,77.5,64.8,57.9,51.1,65,41,31,30.00,29.88,27,11,27,0.00
2012-7-19,94.5,84.9,77.5,58.8,54.5,49.6,50,36,31,29.97,29.88,27,11,27,0.00
2012-7-20,100.8,87.7,75.4,63.3,56.3,50.6,43,35,30,29.94,29.85,15,6,15,0.00
2012-7-21,104.4,90.4,77.9,65.8,57.3,48.0,41,33,29,29.91,29.80,13,4,13,0.00
2012-7-22,102.6,89.4,77.4,66.0,57.6,47.6,53,35,29,29.85,29.74,15,5,15,0.00
2012-7-23,99.3,89.1,81.5,65.2,58.7,51.7,53,37,30,29.88,29.80,23,10,23,0.00
2012-7-24,100.6,88.5,80.2,76.0,64.0,58.6,86,45,32,29.94,29.85,16,6,16,0.00
2012-7-26,92.1,85.1,81.9,67.6,64.5,62.0,62,50,41,29.80,29.77,21,6,21,0.00
2012-7-27,103.3,89.3,78.4,70.8,65.1,53.1,70,47,29,29.83,29.71,16,5,16,0.00
2012-7-28,85.5,84.1,82.9,53.1,52.3,51.7,34,34,33,29.80,29.77,7,3,7,0.00
2012-7-30,97.7,89.7,85.6,65.9,62.6,59.2,49,41,31,29.80,29.77,14,4,14,0.00
2012-7-31,99.3,91.2,84.7,63.7,59.6,53.4,47,35,30,29.85,29.77,22,9,22,0.00
2012-8-1,95.7,88.0,80.6,60.2,56.4,50.7,44,35,31,29.91,29.80,22,10,22,0.00
2012-8-2,98.2,85.5,78.3,64.6,59.3,50.9,54,42,31,29.94,29.88,17,6,17,0.00
2012-8-3,100.6,86.9,76.5,67.8,58.2,50.3,59,39,30,29.97,29.88,15,4,15,0.00
2012-8-4,100.8,88.8,77.5,71.0,60.7,52.3,70,41,30,29.97,29.88,15,4,15,0.00
2012-8-5,104.2,90.8,79.0,66.6,59.8,53.2,61,36,29,30.00,29.91,19,6,19,0.00
2012-8-6,106.9,93.5,81.3,67.8,59.2,51.1,39,32,29,29.97,29.88,18,5,18,0.00
2012-8-7,107.1,96.1,84.2,67.6,61.1,54.0,49,32,29,29.97,29.88,22,7,22,0.00
2012-8-8,107.4,96.3,88.2,67.9,60.6,55.4,33,31,29,29.94,29.88,18,7,18,0.00
2012-8-9,102.6,92.7,84.6,65.1,59.6,54.0,44,33,30,29.97,29.88,22,8,22,0.00
2012-8-10,100.8,89.9,84.7,65.3,59.0,52.9,45,36,30,29.94,29.80,26,10,26,0.00
2012-8-11,97.5,84.6,75.9,63.6,59.8,52.6,62,44,31,29.88,29.77,24,9,24,0.00
2012-8-12,97.5,82.6,73.8,66.2,61.8,57.4,76,51,33,29.94,29.80,16,5,16,0.00
2012-8-13,90.0,81.9,75.0,73.9,64.7,54.2,83,58,38,30.00,29.88,18,5,18,0.00
2012-8-14,95.5,84.5,75.2,70.3,61.7,51.6,78,48,34,30.00,29.88,22,5,22,0.00
2012-8-15,96.6,85.5,76.8,67.5,60.4,50.3,64,44,31,29.97,29.88,14,4,14,0.00
2012-8-16,100.6,86.8,78.8,67.8,62.9,55.7,65,47,30,29.94,29.88,14,4,14,0.00
2012-8-17,101.3,87.6,77.4,64.5,58.7,52.4,60,39,30,30.00,29.88,22,7,22,0.00
2012-8-18,94.8,85.7,79.9,59.3,53.5,49.6,37,33,31,30.03,29.94,20,9,20,0.00
2012-8-19,87.6,81.1,76.6,57.0,54.1,51.3,45,40,33,30.12,30.00,28,11,28,0.00
2012-8-20,81.1,79.6,78.3,52.4,50.7,49.8,40,37,34,30.06,30.03,18,10,18,0.00
2012-8-21,95.4,84.7,77.0,59.5,54.1,48.4,42,35,31,30.06,29.94,23,9,23,0.00
2012-8-22,102.6,90.4,79.0,64.7,57.8,51.7,42,34,29,30.00,29.94,17,8,17,0.00
2012-8-23,102.9,94.2,83.1,64.7,59.2,51.8,34,31,29,30.00,29.91,18,8,18,0.00
2012-8-24,104.9,93.5,83.7,66.2,58.9,52.0,39,32,29,29.94,29.88,21,7,21,0.00
2012-8-25,104.2,91.5,82.4,65.5,57.3,51.2,34,32,29,29.94,29.85,15,6,15,0.00
2012-8-26,103.8,90.6,80.6,71.0,66.4,61.8,71,48,29,29.83,29.77,14,6,14,0.00
2012-8-27,105.3,88.8,79.0,67.4,60.4,55.2,65,39,29,29.83,29.71,16,5,16,0.00
2012-8-28,89.1,80.8,74.1,58.7,53.1,47.9,53,39,33,30.09,29.83,30,14,30,0.00
2012-8-29,90.5,80.6,72.0,56.5,52.1,46.5,48,38,32,30.12,30.00,18,8,18,0.00
2012-8-30,91.9,81.7,73.0,57.9,51.9,45.6,49,36,32,30.06,29.94,20,9,20,0.00
2012-8-31,93.4,82.6,73.2,58.6,51.5,45.1,39,34,31,30.00,29.94,24,9,24,0.00
2012-9-1,91.8,82.3,74.1,57.7,51.7,45.7,42,35,32,30.06,29.94,25,10,25,0.00
2012-9-2,92.8,81.5,73.6,59.7,54.7,49.9,57,40,32,30.12,30.03,20,9,20,0.00
2012-9-3,93.9,80.4,70.5,59.7,55.7,49.1,59,44,31,30.09,29.94,15,6,15,0.00
2012-9-4,94.5,81.4,70.7,60.0,54.4,47.6,52,40,31,30.00,29.91,14,5,14,0.00
2012-9-5,93.0,81.0,71.6,71.4,59.6,53.6,88,50,32,29.97,29.91,19,5,19,0.00
2012-9-6,91.4,80.9,73.4,71.7,67.7,61.3,90,66,41,29.97,29.88,16,5,16,0.00
2012-9-7,92.7,82.5,75.6,66.9,57.5,49.3,69,44,32,30.03,29.91,21,7,21,0.00
2012-9-8,87.1,79.4,73.8,57.7,53.9,50.2,53,42,33,30.06,29.97,25,10,25,0.00
2012-9-9,91.8,80.9,71.8,57.7,53.3,48.4,58,39,32,30.06,29.97,23,8,23,0.00
2012-9-10,87.1,79.3,73.9,54.5,51.3,45.6,50,38,33,30.12,30.00,25,10,25,0.00
2012-9-11,87.8,77.5,71.6,56.2,53.3,51.0,53,44,33,30.09,29.94,19,9,19,0.00
2012-9-12,88.9,75.4,68.5,67.5,58.1,52.6,86,56,38,30.03,29.88,19,6,19,0.00
2012-9-13,71.8,71.2,70.7,69.8,68.4,67.0,97,91,85,29.91,29.85,7,2,7,0.00
2012-9-16,76.8,73.3,70.0,74.1,64.1,56.4,100,74,56,29.88,29.83,12,4,12,0.04
2012-9-17,88.0,75.1,66.9,69.3,62.3,59.1,88,66,39,30.00,29.85,15,4,15,0.00
2012-9-18,89.1,76.1,68.4,69.0,63.3,57.6,91,67,38,30.00,29.94,14,6,14,0.00
2012-9-19,90.0,77.1,70.0,69.8,63.9,57.6,89,66,39,30.00,29.94,16,5,16,0.00
2012-9-20,87.6,77.7,70.2,72.9,66.4,57.3,100,72,40,30.00,29.91,15,4,15,0.00
2012-9-21,87.1,76.0,68.7,65.6,56.4,51.2,75,53,33,30.09,29.94,13,5,13,0.00
2012-9-22,84.9,72.8,65.8,55.6,50.4,46.3,64,47,33,30.15,30.06,14,6,14,0.00
2012-9-23,87.6,76.5,70.0,57.4,54.1,51.8,58,47,33,30.12,30.06,12,5,12,0.00
2012-9-24,89.4,76.8,66.4,59.7,54.3,48.0,63,47,33,30.09,29.94,11,4,11,0.00
2012-9-25,93.4,79.5,69.3,68.7,61.1,50.7,80,55,34,30.00,29.88,13,4,13,0.00
2012-9-26,98.4,84.1,72.1,63.3,58.5,53.1,61,43,31,30.06,29.94,9,3,9,0.00
2012-9-27,94.3,82.7,73.9,70.6,59.6,52.0,84,48,31,30.12,30.00,12,3,12,0.00
2012-9-28,95.2,83.7,72.7,70.6,56.6,49.9,85,41,31,30.12,30.00,17,6,17,0.00
2012-9-29,95.4,85.1,76.6,59.9,53.3,48.0,40,34,31,30.12,30.00,20,9,20,0.00
2012-9-30,98.4,84.3,75.4,62.4,53.2,46.1,40,35,31,30.12,30.00,15,5,15,0.00
2012-10-1,94.1,82.1,72.5,59.7,52.9,44.0,52,37,31,30.12,30.03,10,4,10,0.00
2012-10-2,88.5,78.1,69.8,65.5,57.9,54.1,69,51,35,30.12,30.00,14,4,14,0.00
2012-10-3,88.9,78.5,70.7,67.4,60.8,55.7,76,55,35,30.03,29.94,17,5,17,0.00
2012-10-4,91.0,77.2,71.4,63.2,58.1,52.4,67,53,32,30.00,29.94,14,4,14,0.00
2012-10-5,88.9,76.5,68.4,64.4,57.8,50.4,80,54,38,30.12,29.97,14,5,14,0.00
2012-10-6,86.7,77.5,69.6,56.2,52.5,48.5,55,43,33,30.18,30.09,20,7,20,0.00
2012-10-8,87.8,78.1,72.1,60.7,56.0,37.0,64,48,21,29.62,29.56,15,7,15,0.00
2012-10-9,82.4,73.1,67.6,57.2,51.7,44.6,64,48,35,29.68,29.59,14,7,14,0.00
2012-10-10,77.9,69.7,66.9,58.4,52.8,48.6,74,56,37,29.62,29.56,14,6,14,0.00
2012-10-11,68.2,66.7,66.0,56.6,54.1,53.2,67,64,63,29.74,29.59,8,3,8,0.00
2012-10-12,81.9,72.1,66.6,72.3,63.0,56.9,100,75,45,29.80,29.71,18,6,18,0.00
2012-10-13,85.3,74.7,69.4,72.3,66.8,54.2,100,80,36,29.80,29.71,15,3,15,0.00
2012-10-14,84.9,74.4,67.8,73.8,62.3,56.5,99,67,43,29.80,29.65,27,6,27,0.04
2012-10-15,85.1,74.8,68.5,74.7,68.7,58.3,100,84,44,29.83,29.68,20,5,20,0.00
2012-10-16,88.7,76.2,70.7,76.5,69.5,55.9,100,83,36,29.91,29.80,21,4,21,0.00
2012-10-17,90.0,76.3,70.6,77.1,67.7,59.0,100,78,43,29.91,29.83,8,3,8,0.00
2012-10-18,88.3,77.5,69.4,62.9,56.8,46.6,73,51,30,29.94,29.83,15,5,15,0.00
2012-10-19,87.3,75.1,67.3,55.4,48.9,39.9,64,41,27,29.94,29.83,17,7,17,0.00
2012-10-20,82.4,72.5,65.3,47.3,43.5,37.6,47,36,28,29.85,29.74,17,6,17,0.00
2012-10-21,76.8,68.8,63.9,50.7,46.6,41.4,58,46,32,29.80,29.71,20,8,20,0.00
2012-10-22,75.2,65.4,61.0,65.3,55.4,45.7,100,73,46,29.77,29.68,13,4,13,0.04
2012-10-23,71.6,64.0,60.4,69.0,63.6,60.2,100,99,85,29.77,29.65,17,5,17,0.13
2012-10-24,70.3,64.7,61.2,68.5,63.6,61.2,100,96,81,29.77,29.68,17,7,17,0.00
2012-10-25,78.1,66.5,59.0,64.9,60.6,57.3,100,83,56,29.77,29.65,15,5,15,0.00
2012-10-26,79.3,67.9,59.9,70.8,63.3,58.2,100,87,57,29.71,29.59,13,4,13,0.00
2012-10-27,79.9,69.8,61.9,73.4,68.5,61.9,100,96,69,29.62,29.53,33,7,33,0.00
2012-10-28,77.7,73.4,71.4,76.5,72.2,67.5,100,96,77,29.62,29.53,34,13,34,0.00
2012-10-29,81.1,72.9,67.3,72.7,60.3,45.4,100,67,38,29.59,29.47,32,8,32,0.25
2012-10-30,74.7,66.9,62.1,50.8,42.4,37.5,65,42,29,29.68,29.53,20,7,20,0.00
2012-10-31,78.4,67.5,58.8,48.4,40.2,33.1,53,38,26,29.74,29.65,10,4,10,0.00
2012-11-1,75.6,70.2,65.5,71.3,60.3,45.4,99,72,47,29.68,29.47,24,8,24,0.00
2012-11-2,81.0,72.9,66.9,74.2,57.7,46.4,100,64,31,29.68,29.47,15,5,15,0.00
2012-11-3,82.8,70.4,62.2,53.8,49.4,45.6,63,49,30,29.83,29.65,11,4,11,0.00
2012-11-4,78.4,69.5,63.1,68.7,59.4,50.0,100,72,44,29.83,29.77,9,3,9,0.00
2012-11-5,77.2,67.8,62.6,61.9,55.3,47.7,83,66,39,29.80,29.68,10,3,10,0.00
2012-11-6,84.9,74.7,65.5,70.1,57.2,48.1,100,59,33,29.74,29.65,18,4,18,0.00
2012-11-7,78.4,70.1,61.0,65.1,51.8,45.2,98,55,33,29.80,29.68,23,6,23,0.00
2012-11-8,62.4,58.3,53.2,60.9,47.8,37.1,100,70,40,29.88,29.68,26,9,26,0.00
2012-11-9,69.6,58.9,51.8,45.5,40.2,36.8,63,51,31,29.85,29.68,10,4,10,0.00
2012-11-10,67.8,59.3,53.2,45.1,41.4,38.2,66,52,36,29.94,29.71,17,6,17,0.00
2012-11-11,68.2,59.6,53.1,47.1,42.0,37.2,77,54,33,30.06,29.94,16,6,16,0.00
2012-11-12,67.8,60.0,53.4,46.4,42.2,39.7,64,52,39,30.06,29.94,15,5,15,0.00
2012-11-13,72.7,61.6,54.1,47.7,42.9,38.6,72,52,33,29.97,29.83,8,3,8,0.00
2012-11-14,68.4,60.8,52.3,44.9,40.6,37.3,62,48,36,29.94,29.85,24,9,24,0.00
2012-11-15,68.0,60.9,56.5,44.1,41.4,37.7,62,49,35,29.91,29.83,15,6,15,0.00
2012-11-16,70.0,62.5,59.0,51.3,46.6,40.8,71,57,44,29.85,29.80,13,5,13,0.00
2012-11-17,61.2,60.2,59.4,55.4,53.7,49.0,85,79,66,29.83,29.77,10,4,10,0.00
2012-11-20,70.2,63.5,59.9,67.8,61.0,55.3,100,92,67,29.80,29.68,14,5,14,0.00
2012-11-21,62.4,60.3,59.0,62.2,60.1,58.7,100,99,97,29.80,29.71,10,3,10,0.00
2012-11-22,66.2,60.7,58.1,59.4,46.4,39.0,99,61,38,29.94,29.77,31,10,31,0.00
2012-11-23,65.8,59.4,55.6,48.4,43.7,37.4,74,57,37,29.97,29.88,14,6,14,0.00
2012-11-24,66.0,58.7,54.9,52.8,47.5,43.0,87,67,48,29.97,29.85,15,5,15,0.00
2012-11-25,66.6,58.1,52.9,47.7,42.8,37.1,71,58,37,29.97,29.88,17,7,17,0.00
2012-11-26,55.9,55.8,55.8,46.9,46.9,45.9,72,72,69,29.94,29.85,13,5,13,0.00
2012-11-27,55.8,55.8,55.8,46.9,46.9,46.9,72,72,72,29.88,29.80,15,4,15,0.00
2012-11-28,55.8,55.8,55.8,46.9,46.9,46.9,72,72,72,29.83,29.71,25,8,25,0.00
2012-11-29,55.8,55.8,55.8,46.9,46.9,46.9,72,72,72,29.77,29.47,41,15,41,0.00
2012-11-30,55.8,55.8,55.8,46.9,46.9,46.9,72,72,72,29.65,29.50,38,13,38,0.00
2012-12-1,69.6,57.6,55.8,58.5,50.3,46.9,94,77,52,29.74,29.59,12,3,12,0.00
2012-12-2,71.1,62.5,55.4,67.8,56.4,47.1,100,82,50,29.80,29.41,28,7,28,0.00
2012-12-3,70.3,60.0,52.9,51.6,41.9,30.2,84,53,34,29.59,29.35,32,10,32,0.00
2012-12-4,61.2,52.5,48.0,35.4,26.7,19.7,53,38,27,29.65,29.38,37,9,37,0.00
2012-12-5,65.3,54.6,47.3,52.3,41.7,31.9,87,63,44,29.59,29.32,19,7,19,0.00
2012-12-6,62.4,55.4,50.7,48.8,38.3,31.0,82,53,35,29.53,29.38,20,5,20,0.00
2012-12-7,61.0,52.5,47.7,44.7,34.9,26.0,85,54,30,29.77,29.47,15,5,15,0.00
2012-12-8,61.2,54.0,46.2,56.8,39.9,29.9,100,61,32,29.74,29.50,33,10,33,0.00
2012-12-9,61.2,56.7,49.8,58.6,47.1,34.7,100,72,46,29.50,29.35,32,7,32,0.00
2012-12-10,56.5,50.0,46.0,43.1,34.8,26.9,89,58,36,29.62,29.35,14,5,14,0.00
2012-12-11,63.9,54.1,47.1,47.9,38.3,30.4,69,56,38,29.65,29.44,22,7,22,0.00
2012-12-12,64.8,52.8,47.3,44.7,33.3,25.7,90,50,26,29.83,29.59,15,6,15,0.00
2012-12-13,47.5,46.8,46.2,41.9,35.8,30.0,82,66,53,30.09,29.83,14,7,14,0.00
2012-12-14,58.5,50.1,45.9,34.1,30.8,26.4,56,48,36,30.12,30.03,13,6,13,0.00
2012-12-15,58.5,52.3,48.7,47.3,37.5,33.3,79,58,45,30.12,29.94,8,3,8,0.00
2012-12-16,69.8,58.3,51.3,61.4,50.2,43.4,100,77,42,29.97,29.68,6,2,6,0.00
2012-12-17,70.0,60.1,54.0,62.2,53.0,47.1,100,80,48,29.71,29.56,14,4,14,0.00
2012-12-18,63.3,55.9,51.3,59.7,50.8,42.2,100,84,55,29.56,29.35,22,7,22,0.00
2012-12-19,59.9,51.6,47.8,47.3,41.1,35.1,90,69,43,29.53,29.41,17,6,17,0.00
2012-12-20,51.6,47.4,43.9,36.8,32.6,29.2,67,57,46,29.74,29.50,21,9,21,0.00
2012-12-21,47.1,45.3,43.0,31.8,30.8,29.7,64,57,51,29.74,29.71,12,5,12,0.00
2012-12-22,49.8,49.8,49.8,41.5,41.5,41.5,73,73,73,29.62,29.62,10,10,10,0.00
2012-12-23,49.8,49.1,46.0,41.5,40.0,33.7,73,71,62,29.74,29.62,10,10,10,0.00
2012-12-24,46.0,46.0,46.0,33.7,33.7,33.7,62,62,62,29.74,29.74,9,6,9,0.00
2012-12-25,46.0,46.0,46.0,33.7,33.7,33.7,62,62,62,29.74,29.74,9,6,9,0.00
2012-12-26,46.0,46.0,46.0,33.7,33.7,33.7,62,62,62,29.74,29.74,9,6,9,0.00
2012-12-27,46.0,46.0,46.0,33.7,33.7,33.7,62,62,62,29.74,29.74,9,6,9,0.00
2012-12-28,46.0,46.0,46.0,33.7,33.7,33.7,62,62,62,29.74,29.74,9,6,9,0.00
2012-12-29,46.0,46.0,46.0,33.7,33.7,33.7,62,62,62,29.74,29.74,9,6,9,0.00
2012-12-30,47.3,47.1,46.0,33.7,31.8,31.5,62,55,54,30.00,29.74,9,3,9,0.00
2012-12-31,47.3,47.3,47.3,31.5,31.5,31.5,54,54,54,30.00,30.00,2,2,2,0.00
2013-1-1,47.3,47.3,47.3,31.5,31.5,31.5,54,54,54,30.00,30.00,2,2,2,0.00